createdAt,value
2022-10-29T00:04:49.700Z,6.13
2022-10-29T00:09:51.387Z,5.68
2022-10-29T00:14:53.069Z,6.28
2022-10-29T00:19:54.785Z,6.80
2022-10-29T00:24:56.590Z,5.63
2022-10-29T00:29:58.308Z,5.80
2022-10-29T00:34:59.960Z,6.43
2022-10-29T00:40:01.718Z,6.50
2022-10-29T00:45:03.636Z,5.60
2022-10-29T00:50:09.875Z,5.67
2022-10-29T00:55:13.996Z,6.10
2022-10-29T01:00:16.997Z,4.85
2022-10-29T01:05:23.374Z,4.77
2022-10-29T01:10:33.025Z,5.60
2022-10-29T01:15:58.097Z,5.53
2022-10-29T01:21:18.824Z,4.70
2022-10-29T01:26:38.600Z,4.40
2022-10-29T01:31:55.691Z,4.90
2022-10-29T01:37:20.139Z,3.42
2022-10-29T01:42:44.131Z,3.97
2022-10-29T01:47:56.200Z,3.78
2022-10-29T01:52:58.452Z,4.97
2022-10-29T01:58:00.105Z,3.77
2022-10-29T02:03:42.319Z,4.10
2022-10-29T02:08:55.741Z,3.92
2022-10-29T02:14:10.457Z,3.80
2022-10-29T02:19:12.589Z,4.27
2022-10-29T02:24:14.255Z,4.55
2022-10-29T02:29:15.896Z,4.37
2022-10-29T02:34:17.603Z,4.43
2022-10-29T02:39:19.244Z,3.72
2022-10-29T02:44:20.870Z,4.78
2022-10-29T02:49:22.554Z,5.25
2022-10-29T02:54:24.260Z,5.40
2022-10-29T02:59:26.061Z,4.80
2022-10-29T03:04:27.810Z,4.93
2022-10-29T03:09:29.496Z,5.68
2022-10-29T03:14:31.232Z,5.18
2022-10-29T03:19:32.909Z,6.05
2022-10-29T03:24:34.552Z,5.70
2022-10-29T03:29:36.190Z,6.33
2022-10-29T03:34:37.875Z,5.70
2022-10-29T03:39:39.561Z,5.40
2022-10-29T03:44:41.270Z,5.28
2022-10-29T03:49:42.920Z,4.43
2022-10-29T03:54:44.606Z,5.22
2022-10-29T03:59:49.874Z,4.60
2022-10-29T04:04:54.094Z,5.72
2022-10-29T04:09:55.757Z,4.70
2022-10-29T04:14:57.428Z,5.47
2022-10-29T04:19:59.098Z,5.05
2022-10-29T04:30:23.682Z,4.45
2022-10-29T04:35:26.414Z,5.07
2022-10-29T04:40:28.094Z,5.13
2022-10-29T04:45:29.779Z,4.22
2022-10-29T04:50:32.927Z,5.93
2022-10-29T04:55:37.492Z,5.65
2022-10-29T05:00:39.374Z,5.60
2022-10-29T05:05:41.043Z,6.32
2022-10-29T05:10:42.743Z,6.55
2022-10-29T05:15:53.308Z,5.95
2022-10-29T05:20:56.221Z,6.03
2022-10-29T05:25:57.925Z,5.90
2022-10-29T05:31:01.138Z,5.28
2022-10-29T05:36:02.987Z,5.95
2022-10-29T05:41:04.828Z,6.68
2022-10-29T05:46:06.495Z,6.00
2022-10-29T05:51:08.197Z,5.23
2022-10-29T05:56:09.877Z,4.50
2022-10-29T06:01:12.144Z,5.00
2022-10-29T06:06:13.985Z,3.83
2022-10-29T06:11:15.744Z,4.63
2022-10-29T06:16:17.383Z,4.05
2022-10-29T06:21:19.062Z,4.65
2022-10-29T06:26:20.777Z,4.45
2022-10-29T06:31:22.554Z,5.57
2022-10-29T06:36:24.299Z,5.28
2022-10-29T06:41:25.977Z,5.80
2022-10-29T06:46:27.732Z,5.83
2022-10-29T06:51:29.473Z,5.77
2022-10-29T06:56:31.176Z,5.90
2022-10-29T07:01:32.951Z,7.93
2022-10-29T07:06:34.906Z,7.55
2022-10-29T07:11:36.562Z,9.38
2022-10-29T07:16:38.264Z,8.80
2022-10-29T07:21:39.934Z,7.90
2022-10-29T07:26:41.628Z,5.70
2022-10-29T07:31:43.297Z,6.38
2022-10-29T07:36:45.012Z,6.97
2022-10-29T07:41:46.709Z,7.53
2022-10-29T07:46:48.526Z,8.00
2022-10-29T07:51:50.208Z,6.93
2022-10-29T07:56:52.718Z,7.85
2022-10-29T08:01:54.524Z,8.15
2022-10-29T08:06:56.298Z,8.20
2022-10-29T08:11:57.999Z,8.00
2022-10-29T08:16:59.659Z,9.48
2022-10-29T08:22:01.335Z,10.05
2022-10-29T08:27:03.016Z,9.05
2022-10-29T08:32:04.945Z,10.65
2022-10-29T08:37:06.666Z,11.57
2022-10-29T08:42:11.284Z,8.23
2022-10-29T08:47:23.728Z,9.15
2022-10-29T08:52:30.597Z,7.00
2022-10-29T08:57:37.889Z,7.83
2022-10-29T09:02:39.835Z,7.95
2022-10-29T09:08:10.832Z,5.97
2022-10-29T09:13:21.275Z,6.07
2022-10-29T09:18:45.915Z,5.97
2022-10-29T09:24:05.853Z,6.22
2022-10-29T09:29:26.415Z,5.30
2022-10-29T09:34:39.766Z,5.60
2022-10-29T09:39:44.497Z,5.45
2022-10-29T09:44:59.544Z,4.75
2022-10-29T09:50:34.702Z,5.20
2022-10-29T09:55:44.830Z,4.43
2022-10-29T10:00:46.491Z,5.10
2022-10-29T10:06:04.478Z,5.40
2022-10-29T10:11:07.198Z,5.25
2022-10-29T10:16:09.501Z,4.50
2022-10-29T10:21:14.044Z,4.82
2022-10-29T10:26:34.071Z,3.90
2022-10-29T10:31:35.737Z,4.18
2022-10-29T10:36:42.008Z,3.95
2022-10-29T10:41:43.946Z,4.10
2022-10-29T10:46:46.367Z,3.42
2022-10-29T10:51:56.286Z,4.13
2022-10-29T10:57:26.286Z,3.20
2022-10-29T11:02:40.171Z,3.75
2022-10-29T11:07:56.473Z,3.92
2022-10-29T11:13:05.006Z,3.13
2022-10-29T11:18:18.394Z,2.53
2022-10-29T11:23:35.790Z,3.47
2022-10-29T11:28:53.999Z,3.67
2022-10-29T11:34:21.515Z,3.23
2022-10-29T11:39:58.878Z,3.75
2022-10-29T11:45:00.594Z,3.67
2022-10-29T11:50:16.000Z,3.60
2022-10-29T11:55:23.502Z,4.97
2022-10-29T12:00:27.489Z,3.75
2022-10-29T12:05:32.208Z,4.45
2022-10-29T12:10:46.082Z,4.63
2022-10-29T12:16:11.314Z,5.15
2022-10-29T12:21:30.152Z,4.30
2022-10-29T12:27:12.942Z,5.20
2022-10-29T12:32:25.176Z,5.00
2022-10-29T12:37:48.770Z,5.45
2022-10-29T12:42:52.238Z,5.80
2022-10-29T12:48:00.364Z,5.03
2022-10-29T12:53:20.922Z,5.47
2022-10-29T12:58:51.765Z,5.18
2022-10-29T13:03:53.666Z,5.40
2022-10-29T13:08:56.189Z,4.90
2022-10-29T13:14:00.381Z,4.53
2022-10-29T13:19:18.838Z,5.90
2022-10-29T13:24:21.272Z,4.63
2022-10-29T13:29:44.835Z,4.78
2022-10-29T13:34:51.325Z,5.03
2022-10-29T13:40:23.682Z,4.57
2022-10-29T13:45:25.854Z,4.28
2022-10-29T13:50:28.059Z,4.83
2022-10-29T13:55:34.007Z,4.43
2022-10-29T14:00:36.748Z,4.63
2022-10-29T14:05:51.592Z,4.67
2022-10-29T14:11:27.769Z,5.33
2022-10-29T14:16:31.952Z,4.72
2022-10-29T14:21:39.033Z,4.90
2022-10-29T14:26:42.754Z,4.57
2022-10-29T14:31:44.474Z,4.43
2022-10-29T14:36:47.749Z,6.23
2022-10-29T14:41:50.047Z,5.40
2022-10-29T14:47:05.573Z,5.75
2022-10-29T14:52:22.808Z,4.80
2022-10-29T14:57:28.155Z,5.68
2022-10-29T15:02:40.962Z,5.07
2022-10-29T15:07:43.049Z,6.07
2022-10-29T15:12:45.499Z,5.65
2022-10-29T15:18:16.343Z,7.68
2022-10-29T15:23:26.301Z,5.80
2022-10-29T15:28:31.410Z,6.57
2022-10-29T15:33:35.207Z,6.75
2022-10-29T15:38:59.581Z,6.45
2022-10-29T15:44:01.301Z,6.00
2022-10-29T15:49:03.221Z,6.63
2022-10-29T15:54:04.919Z,6.70
2022-10-29T15:59:10.635Z,6.57
2022-10-29T16:04:12.312Z,6.38
2022-10-29T16:09:19.721Z,6.28
2022-10-29T16:14:21.405Z,6.40
2022-10-29T16:19:23.091Z,6.85
2022-10-29T16:24:24.799Z,6.88
2022-10-29T16:29:26.505Z,6.97
2022-10-29T16:34:28.205Z,6.55
2022-10-29T16:39:29.957Z,6.57
2022-10-29T16:44:31.779Z,6.57
2022-10-29T16:49:33.623Z,7.47
2022-10-29T16:54:35.340Z,7.78
2022-10-29T16:59:37.043Z,7.55
2022-10-29T17:04:38.790Z,6.97
2022-10-29T17:09:40.583Z,6.28
2022-10-29T17:14:42.290Z,6.65
2022-10-29T17:19:44.238Z,6.05
2022-10-29T17:24:46.102Z,6.25
2022-10-29T17:29:48.109Z,6.90
2022-10-29T17:34:49.804Z,8.10
2022-10-29T17:39:51.558Z,7.20
2022-10-29T17:44:53.227Z,8.52
2022-10-29T17:49:55.005Z,6.40
2022-10-29T17:54:56.816Z,7.45
2022-10-29T17:59:58.582Z,6.93
2022-10-29T18:05:00.251Z,7.57
2022-10-29T18:10:01.943Z,7.70
2022-10-29T18:15:03.931Z,7.78
2022-10-29T18:20:07.991Z,6.85
2022-10-29T18:25:11.161Z,8.13
2022-10-29T18:30:13.018Z,6.85
2022-10-29T18:35:14.802Z,8.45
2022-10-29T18:40:16.506Z,7.43
2022-10-29T18:45:18.161Z,8.35
2022-10-29T18:50:19.842Z,8.60
2022-10-29T18:55:21.535Z,8.25
2022-10-29T19:00:23.382Z,6.70
2022-10-29T19:05:25.140Z,7.50
2022-10-29T19:10:26.881Z,7.87
2022-10-29T19:15:28.559Z,7.87
2022-10-29T19:20:32.917Z,7.63
2022-10-29T19:25:39.946Z,6.82
2022-10-29T19:30:41.671Z,7.68
2022-10-29T19:35:43.404Z,8.07
2022-10-29T19:40:45.075Z,7.20
2022-10-29T19:45:46.826Z,7.82
2022-10-29T19:50:53.102Z,9.10
2022-10-29T19:55:55.044Z,7.03
2022-10-29T20:01:07.150Z,7.00
2022-10-29T20:06:09.457Z,8.32
2022-10-29T20:11:11.244Z,7.70
2022-10-29T20:16:18.811Z,6.90
2022-10-29T20:21:20.518Z,6.97
2022-10-29T20:26:22.341Z,7.07
2022-10-29T20:31:29.993Z,7.47
2022-10-29T20:36:33.025Z,7.38
2022-10-29T20:41:34.798Z,7.17
2022-10-29T20:46:40.869Z,8.43
2022-10-29T20:51:45.280Z,7.07
2022-10-29T20:56:46.927Z,7.35
2022-10-29T21:01:48.704Z,7.38
2022-10-29T21:06:50.623Z,7.85
2022-10-29T21:11:52.335Z,8.23
2022-10-29T21:16:54.013Z,7.35
2022-10-29T21:21:55.699Z,7.05
2022-10-29T21:26:57.361Z,6.22
2022-10-29T21:31:59.096Z,6.50
2022-10-29T21:37:00.768Z,7.80
2022-10-29T21:42:02.469Z,7.10
2022-10-29T21:47:04.332Z,6.10
2022-10-29T21:52:05.997Z,5.97
2022-10-29T21:57:07.690Z,6.83
2022-10-29T22:02:09.569Z,7.30
2022-10-29T22:07:11.328Z,6.43
2022-10-29T22:12:13.009Z,6.60
2022-10-29T22:17:15.530Z,5.53
2022-10-29T22:22:17.205Z,6.13
2022-10-29T22:27:19.009Z,6.43
2022-10-29T22:32:20.740Z,6.13
2022-10-29T22:37:22.401Z,6.28
2022-10-29T22:42:24.058Z,4.72
2022-10-29T22:47:25.708Z,5.15
2022-10-29T22:52:27.441Z,4.47
2022-10-29T22:57:29.146Z,5.10
2022-10-29T23:02:30.942Z,4.07
2022-10-29T23:12:39.264Z,4.13
2022-10-29T23:17:40.922Z,4.60
2022-10-29T23:22:42.576Z,4.03
2022-10-29T23:27:44.248Z,4.00
2022-10-29T23:32:45.903Z,5.00
2022-10-29T23:37:47.543Z,4.95
2022-10-29T23:42:49.224Z,5.03
2022-10-29T23:47:50.973Z,4.93
2022-10-29T23:52:52.670Z,3.73
2022-10-29T23:57:54.340Z,4.30
